Flagstaff, Arizona
Current Conditions -  °F | °C
As of 2:57 PM on Friday 19 Dec 2014 (Local Time) from KFLG Reporting Station
Clear Clear  
Wind Chill: 38°   Ceiling: Unl
Heat Index: 38°   Visibility: 10mi
Dew Point: 25°   Wind: 3mph
Humidity: 60%   Direction: 220°SW
Pressure: 30.19"   Gusts: NA
Location:  35.2°N, 111.65°W
Report Text: KFLG 192157Z 22003KT 10SM CLR 03/M04 A3019 RMK AO2 SLP234 T00331039
Loading
Personal Weather Stations






























Interactive Weather Map New forecast layout! Learn more

10-Day Weather Forecast

Advertisements
Track Severe Weather on mobile